Latest Weather Observations for Ballarat

IDV60801

Issued at 2:31 pm EST Monday 31 August 2015 (issued every 30 minutes, with the page automatically refreshed every 10 minutes)

About weather observations | Map of weather stations | Latest weather observations for VIC | Other Formats
Station Details ID: 089002 Name: BALLARAT AERODROME Lat: -37.51 Lon: 143.79 Height: 435.2 m
Data from the previous 72 hours. | See also: Recent months at Ballarat
Date/Time
EST
Temp
°C
App
Temp
°C
Dew
Point
Rel
Hum
%
Delta-T
°C
Wind Press
QNH
hPa
Press
MSL
hPa
Rain
since 9 am
mm
Dir
 
Spd
km/h
Gust
km/h
Spd
kts
Gust
kts
31/02:30pm 8.5 3.8 3.1 69 2.4 S 17 22 9 12 1018.7 1019.3 0.0
31/02:00pm 7.9 3.1 2.8 70 2.2 SSW 17 24 9 13 1018.8 1019.5 0.0
31/01:30pm 7.7 2.5 2.4 69 2.3 S 19 24 10 13 1019.0 1019.7 0.0
31/01:00pm 7.9 3.6 3.0 71 2.1 S 15 26 8 14 1019.3 1020.0 0.0
31/12:30pm 7.6 2.3 2.1 68 2.3 S 19 26 10 14 1019.6 1020.3 0.0
31/12:00pm 7.1 2.0 2.8 74 1.8 S 19 24 10 13 1020.1 1020.8 0.0
31/11:30am 6.3 1.2 2.9 79 1.4 S 19 28 10 15 1020.3 1021.0 0.0
31/11:00am 6.4 1.3 2.9 78 1.5 S 19 28 10 15 1020.4 1021.1 0.0
31/10:30am 6.1 1.4 3.1 81 1.3 S 17 22 9 12 1020.4 1021.1 0.0
31/10:00am 5.7 0.9 2.7 81 1.3 S 17 20 9 11 1020.6 1021.2 0.0
31/09:30am 5.4 0.2 2.6 82 1.2 S 19 24 10 13 1020.7 1021.3 0.0
31/09:00am 4.9 0.2 3.4 90 0.6 S 17 20 9 11 1020.7 1021.3 0.2
31/08:58am 5.1 0.5 3.8 91 0.6 SSE 17 24 9 13 1020.7 1021.3 0.2
31/08:30am 4.5 -0.4 4.2 98 0.1 SSE 19 24 10 13 1020.8 1021.5 0.2
31/08:00am 4.2 -0.7 4.1 99 0.0 S 19 24 10 13 1020.7 1021.3 0.2
31/07:30am 3.9 -0.7 3.8 99 0.0 S 17 20 9 11 1020.2 1020.9 0.2
31/07:29am 3.8 -0.8 3.7 99 0.0 S 17 20 9 11 1020.2 1020.9 0.2
31/07:08am 3.9 -0.3 3.8 99 0.0 S 15 19 8 10 1020.1 1020.8 0.2
31/07:00am 3.8 -0.4 3.7 99 0.0 S 15 20 8 11 1020.1 1020.8 0.2
31/06:30am 3.8 0.3 3.5 98 0.1 SSW 11 17 6 9 1020.1 1020.8 0.2
31/06:00am 3.9 -0.7 3.6 98 0.1 S 17 22 9 12 1020.1 1020.8 0.2
31/05:30am 3.9 0.0 3.6 98 0.1 S 13 19 7 10 1020.1 1020.8 0.2
31/05:00am 3.9 -0.7 3.6 98 0.1 S 17 22 9 12 1020.1 1020.8 0.2
31/04:30am 3.7 -1.0 3.4 98 0.1 S 17 20 9 11 1020.1 1020.8 0.2
31/04:00am 4.3 0.5 3.7 96 0.3 SSW 13 20 7 11 1020.2 1020.9 0.2
31/03:30am 4.5 -0.6 3.2 91 0.5 S 19 24 10 13 1020.3 1021.0 0.2
31/03:07am 4.6 0.7 3.3 91 0.6 S 13 22 7 12 1020.6 1021.2 0.2
31/03:00am 4.7 -0.4 3.2 90 0.6 S 19 24 10 13 1020.7 1021.3 0.2
31/02:30am 4.7 0.0 3.0 89 0.7 SSE 17 24 9 13 1020.9 1021.6 0.2
31/02:00am 4.7 -0.4 2.9 88 0.8 S 19 28 10 15 1021.4 1022.1 0.2
31/01:30am 4.5 0.5 2.7 88 0.8 S 13 17 7 9 1021.6 1022.3 0.2
31/01:00am 4.4 -0.7 2.8 89 0.7 SSE 19 26 10 14 1021.8 1022.5 0.2
31/12:30am 4.6 -0.5 2.8 88 0.8 S 19 28 10 15 1021.8 1022.5 0.2
31/12:00am 4.9 -0.4 3.1 88 0.8 S 20 26 11 14 1022.1 1022.8 0.2
 
Date/Time
EST
Temp
°C
App
Temp
°C
Dew
Point
Rel
Hum
%
Delta-T
°C
Wind Press
QNH
hPa
Press
MSL
hPa
Rain
since 9 am
mm
Dir
 
Spd
km/h
Gust
km/h
Spd
kts
Gust
kts
30/11:30pm 5.0 -0.6 3.3 89 0.7 SSE 22 28 12 15 1022.3 1023.0 0.2
30/11:00pm 5.2 0.1 3.9 91 0.6 S 20 24 11 13 1022.5 1023.2 0.2
30/10:30pm 5.4 0.9 4.4 93 0.4 S 17 22 9 12 1022.8 1023.6 0.2
30/10:00pm 5.5 0.6 4.0 90 0.6 S 19 26 10 14 1023.1 1023.8 0.2
30/09:30pm 5.6 0.7 4.1 90 0.7 S 19 24 10 13 1023.0 1023.7 0.2
30/09:00pm 5.8 0.9 4.3 90 0.7 S 19 26 10 14 1023.1 1023.8 0.2
30/08:30pm 6.1 1.1 4.4 89 0.8 S 20 26 11 14 1023.1 1023.8 0.2
30/08:00pm 6.4 1.6 4.9 90 0.7 S 19 24 10 13 1023.0 1023.7 0.2
30/07:30pm 6.7 1.9 4.5 86 1.0 SSW 19 28 10 15 1022.8 1023.6 0.2
30/07:00pm 7.2 2.5 5.0 86 1.0 SSW 19 24 10 13 1022.7 1023.5 0.2
30/06:30pm 7.7 4.4 4.8 82 1.3 SSW 11 15 6 8 1022.7 1023.5 0.2
30/06:00pm 8.0 4.3 4.2 77 1.7 SSW 13 19 7 10 1022.4 1023.1 0.2
30/05:30pm 8.1 4.3 3.8 74 1.9 SSW 13 17 7 9 1022.4 1023.1 0.2
30/05:00pm 8.2 3.6 3.9 74 1.9 S 17 24 9 13 1022.3 1023.0 0.2
30/04:30pm 8.7 4.1 3.7 71 2.2 S 17 24 9 13 1022.3 1023.0 0.2
30/04:00pm 8.8 4.3 4.2 73 2.1 S 17 22 9 12 1022.5 1023.2 0.2
30/03:30pm 9.1 4.7 4.7 74 2.0 S 17 22 9 12 1022.7 1023.5 0.2
30/03:00pm 8.5 3.9 3.9 73 2.0 S 17 22 9 12 1022.8 1023.6 0.2
30/02:30pm 8.5 4.4 4.3 75 1.9 SSE 15 20 8 11 1023.0 1023.7 0.2
30/02:00pm 8.3 4.3 4.9 79 1.5 SSE 15 22 8 12 1023.1 1023.8 0.2
30/01:30pm 8.5 3.8 5.3 80 1.5 SE 19 24 10 13 1023.2 1023.9 0.2
30/01:00pm 7.7 2.9 4.8 82 1.3 SSE 19 22 10 12 1023.6 1024.3 0.2
30/12:30pm 7.6 3.3 5.1 84 1.1 SSE 17 22 9 12 1023.9 1024.6 0.2
30/12:05pm 7.2 2.7 6.3 94 0.4 SSE 19 26 10 14 1024.3 1025.0 0.2
30/12:00pm 6.9 2.3 6.3 96 0.3 SSE 20 26 11 14 1024.4 1025.1 0.2
30/11:46am 6.7 2.6 6.4 98 0.1 SSE 17 22 9 12 1024.6 1025.4 0.2
30/11:30am 7.1 2.7 6.5 96 0.3 S 19 26 10 14 1024.7 1025.5 0.2
30/11:02am 6.8 2.4 6.4 97 0.2 SSE 19 26 10 14 1024.9 1025.7 0.2
30/11:00am 6.9 2.3 6.6 98 0.1 SSE 20 26 11 14 1024.9 1025.7 0.2
30/10:30am 5.9 1.1 5.6 98 0.1 SSE 20 28 11 15 1025.0 1025.8 0.2
30/10:18am 6.1 1.9 5.8 98 0.1 SSE 17 26 9 14 1025.1 1025.9 0.2
30/10:00am 6.0 0.5 5.7 98 0.1 S 24 30 13 16 1025.1 1025.9 0.2
30/09:54am 5.9 0.3 5.6 98 0.1 S 24 30 13 16 1025.1 1025.9 0.2
30/09:30am 5.7 0.9 5.6 99 0.0 S 20 32 11 17 1025.0 1025.8 0.0
30/09:08am 5.7 0.1 5.6 99 0.0 S 24 30 13 16 1024.9 1025.7 0.0
30/09:00am 5.7 0.1 5.6 99 0.0 S 24 33 13 18 1025.0 1025.8 0.8
30/08:52am 5.5 -0.1 5.4 99 0.0 S 24 33 13 18 1025.0 1025.8 0.8
30/08:30am 5.6 0.8 5.5 99 0.0 S 20 26 11 14 1024.9 1025.7 0.8
30/08:23am 5.4 0.7 5.3 99 0.0 S 19 24 10 13 1024.9 1025.7 0.8
30/08:14am 5.5 1.2 5.4 99 0.0 S 17 24 9 13 1025.0 1025.8 0.8
30/08:04am 5.6 1.4 5.6 100 0.0 S 17 20 9 11 1025.0 1025.8 0.8
30/08:00am 5.3 1.0 5.3 100 0.0 S 17 20 9 11 1025.0 1025.8 0.8
30/07:57am 5.2 0.9 5.2 100 0.0 S 17 20 9 11 1025.0 1025.8 0.8
30/07:30am 5.0 1.0 5.0 100 0.0 SSW 15 20 8 11 1024.9 1025.7 0.8
30/07:00am 4.9 1.3 4.9 100 0.0 S 13 20 7 11 1024.4 1025.1 0.8
30/06:30am 4.8 0.8 4.8 100 0.0 S 15 19 8 10 1024.2 1024.9 0.8
30/06:21am 4.8 1.2 4.8 100 0.0 S 13 19 7 10 1024.1 1024.8 0.8
30/06:07am 4.9 1.3 4.9 100 0.0 S 13 19 7 10 1024.1 1024.8 0.8
30/06:00am 4.9 0.9 4.9 100 0.0 S 15 20 8 11 1023.9 1024.6 0.8
30/05:59am 4.9 0.9 4.9 100 0.0 S 15 20 8 11 1023.9 1024.6 0.8
30/05:41am 4.9 0.5 4.8 99 0.0 S 17 20 9 11 1023.9 1024.6 0.8
30/05:39am 5.0 1.0 4.9 99 0.0 S 15 20 8 11 1023.9 1024.6 0.8
30/05:30am 4.8 0.8 4.7 99 0.0 S 15 19 8 10 1023.9 1024.6 0.8
30/05:00am 5.0 1.0 4.9 99 0.0 SSW 15 20 8 11 1023.8 1024.5 0.8
30/04:30am 5.2 0.9 5.1 99 0.0 S 17 22 9 12 1023.9 1024.6 0.8
30/04:00am 5.1 0.7 5.0 99 0.0 S 17 26 9 14 1023.9 1024.6 0.8
30/03:30am 5.1 0.4 5.0 99 0.0 S 19 24 10 13 1024.0 1024.7 0.8
30/03:00am 5.0 0.6 4.9 99 0.0 S 17 22 9 12 1024.1 1024.8 0.8
30/02:30am 5.2 0.9 5.1 99 0.0 S 17 22 9 12 1024.3 1025.0 0.8
30/02:19am 5.2 1.2 5.1 99 0.0 SSW 15 20 8 11 1024.5 1025.2 0.8
30/02:00am 5.3 1.0 5.2 99 0.0 S 17 24 9 13 1024.7 1025.5 0.8
30/01:30am 5.3 1.0 5.2 99 0.0 S 17 26 9 14 1024.8 1025.6 0.8
30/01:16am 5.4 1.1 5.3 99 0.0 SSW 17 24 9 13 1025.0 1025.8 0.8
30/01:00am 5.3 1.0 5.2 99 0.0 S 17 22 9 12 1025.0 1025.8 0.8
30/12:56am 5.3 0.6 5.2 99 0.0 S 19 24 10 13 1024.9 1025.7 0.8
30/12:38am 5.4 0.5 5.3 99 0.0 S 20 30 11 16 1025.1 1025.9 0.8
30/12:30am 5.4 0.5 5.3 99 0.0 S 20 26 11 14 1025.1 1025.9 0.8
30/12:19am 5.4 0.5 5.3 99 0.0 S 20 28 11 15 1025.2 1026.0 0.8
30/12:04am 5.5 0.7 5.4 99 0.0 S 20 28 11 15 1025.3 1026.1 0.6
30/12:00am 5.6 0.8 5.5 99 0.0 S 20 30 11 16 1025.3 1026.1 0.6
 
Date/Time
EST
Temp
°C
App
Temp
°C
Dew
Point
Rel
Hum
%
Delta-T
°C
Wind Press
QNH
hPa
Press
MSL
hPa
Rain
since 9 am
mm
Dir
 
Spd
km/h
Gust
km/h
Spd
kts
Gust
kts
29/11:46pm 5.7 0.5 5.6 99 0.0 S 22 30 12 16 1025.5 1026.2 0.6
29/11:30pm 5.6 0.8 5.5 99 0.0 S 20 26 11 14 1025.6 1026.3 0.6
29/11:13pm 5.7 1.5 5.6 99 0.0 SSW 17 22 9 12 1025.8 1026.5 0.6
29/11:12pm 5.7 1.9 5.6 99 0.0 SSW 15 20 8 11 1025.8 1026.5 0.6
29/11:01pm 5.7 2.2 5.6 99 0.0 SSW 13 19 7 10 1025.8 1026.5 0.6
29/11:00pm 5.7 2.2 5.6 99 0.0 SSW 13 19 7 10 1025.8 1026.5 0.6
29/10:54pm 5.7 1.9 5.6 99 0.0 SSW 15 22 8 12 1025.9 1026.6 0.6
29/10:30pm 5.8 1.2 5.7 99 0.0 SSW 19 28 10 15 1026.0 1026.7 0.6
29/10:18pm 5.7 2.2 5.6 99 0.0 SSW 13 19 7 10 1026.0 1026.7 0.6
29/10:00pm 5.8 2.0 5.7 99 0.0 SSW 15 19 8 10 1026.0 1026.7 0.6
29/09:57pm 5.8 2.0 5.7 99 0.0 SSW 15 20 8 11 1026.1 1026.8 0.6
29/09:32pm 5.8 2.0 5.7 99 0.0 SSW 15 24 8 13 1026.0 1026.7 0.6
29/09:30pm 5.8 2.0 5.7 99 0.0 SSW 15 24 8 13 1026.0 1026.7 0.6
29/09:22pm 5.9 2.1 5.8 99 0.0 SSW 15 22 8 12 1026.0 1026.7 0.6
29/09:00pm 5.9 1.3 5.8 99 0.0 SSW 19 26 10 14 1025.8 1026.5 0.6
29/08:47pm 5.9 1.7 5.8 99 0.0 SSW 17 22 9 12 1025.8 1026.5 0.6
29/08:30pm 6.0 1.8 5.9 99 0.0 SSW 17 24 9 13 1025.8 1026.5 0.6
29/08:00pm 6.1 2.0 6.0 99 0.0 SSW 17 24 9 13 1026.0 1026.7 0.6
29/07:30pm 6.3 2.6 6.2 99 0.0 SSW 15 22 8 12 1025.9 1026.6 0.2
29/07:00pm 6.3 2.2 6.2 99 0.0 SSW 17 22 9 12 1025.8 1026.5 0.2
29/06:40pm 6.3 2.2 6.2 99 0.0 SSW 17 24 9 13 1025.7 1026.4 0.2
29/06:30pm 6.3 2.6 6.2 99 0.0 SSW 15 20 8 11 1025.6 1026.3 0.2
29/06:23pm 6.4 2.3 6.1 98 0.1 SW 17 22 9 12 1025.6 1026.3 0.2
29/06:00pm 6.5 2.4 6.2 98 0.1 SSW 17 24 9 13 1025.3 1026.1 0.2
29/05:53pm 6.6 2.1 6.3 98 0.1 SSW 19 26 10 14 1025.3 1026.1 0.2
29/05:44pm 6.5 1.8 6.2 98 0.1 SSW 20 32 11 17 1025.3 1026.1 0.2
29/05:30pm 7.1 3.1 6.8 98 0.1 SSW 17 24 9 13 1025.2 1026.0 0.2
29/05:28pm 7.1 3.1 6.7 97 0.2 SSW 17 24 9 13 1025.1 1025.9 0.2
29/05:25pm 7.1 3.1 6.7 97 0.2 SSW 17 24 9 13 1025.1 1025.9 0.2
29/05:00pm 7.1 3.1 6.8 98 0.1 SSW 17 26 9 14 1025.1 1025.9 0.2
29/04:58pm 7.2 3.6 6.9 98 0.1 SSW 15 22 8 12 1025.1 1025.9 0.2
29/04:53pm 7.3 3.4 7.0 98 0.1 SSW 17 22 9 12 1025.0 1025.8 0.2
29/04:42pm 7.2 2.9 6.9 98 0.1 SSW 19 28 10 15 1024.9 1025.7 0.2
29/04:33pm 7.1 3.1 6.8 98 0.1 SSW 17 26 9 14 1025.0 1025.8 0.2
29/04:30pm 7.0 2.6 6.7 98 0.1 SSW 19 30 10 16 1025.0 1025.8 0.2
29/04:23pm 6.9 1.9 6.6 98 0.1 SSW 22 32 12 17 1025.1 1025.9 0.2
29/04:10pm 7.5 3.3 5.8 89 0.8 SSW 17 26 9 14 1025.0 1025.8 0.0
29/04:00pm 8.1 4.0 6.1 87 0.9 SSW 17 26 9 14 1024.9 1025.7 0.0
29/03:50pm 7.7 3.7 6.6 93 0.5 SSW 17 26 9 14 1025.0 1025.8 0.0
29/03:30pm 7.5 2.9 5.6 88 0.9 SSW 19 24 10 13 1025.2 1026.0 0.0
29/03:00pm 7.4 2.8 6.3 93 0.5 SSW 20 30 11 16 1025.2 1026.0 0.0
29/02:30pm 6.9 2.4 6.2 95 0.3 SSW 19 32 10 17 1025.2 1026.0 0.0
29/02:00pm 8.0 3.1 4.9 81 1.4 S 20 32 11 17 1025.2 1026.0 0.0
29/01:30pm 7.3 3.0 5.4 88 0.9 SSW 17 26 9 14 1025.7 1026.4 0.0
29/01:00pm 7.2 2.1 4.0 80 1.4 SSW 20 32 11 17 1026.1 1026.8 0.0
29/12:30pm 7.3 2.1 3.7 78 1.6 SSW 20 32 11 17 1026.3 1027.0 0.0
29/12:00pm 7.0 1.5 4.1 82 1.3 S 22 35 12 19 1026.6 1027.4 0.0
29/11:30am 7.2 1.6 3.4 77 1.7 SSW 22 32 12 17 1026.7 1027.5 0.0
29/11:00am 6.5 0.0 2.4 75 1.7 S 26 41 14 22 1026.8 1027.6 0.0
29/10:30am 6.2 -0.5 1.5 72 1.9 SSW 26 35 14 19 1026.8 1027.6 0.0
29/10:00am 6.1 0.6 1.6 73 1.8 SSW 20 33 11 18 1027.0 1027.8 0.0
29/09:30am 5.6 0.6 1.3 74 1.8 SSW 17 24 9 13 1027.0 1027.8 0.0
29/09:00am 4.7 -1.0 0.5 74 1.6 SSW 20 33 11 18 1026.8 1027.6 2.2
29/08:30am 4.1 -0.9 1.6 84 1.0 S 17 22 9 12 1026.9 1027.7 2.2
29/08:00am 1.9 -2.7 1.3 96 0.2 S 15 19 8 10 1026.8 1027.6 2.2
29/07:30am 0.8 -4.0 0.5 98 0.1 S 15 19 8 10 1026.6 1027.4 2.0
29/07:00am -0.1 -4.6 -0.4 98 0.1 S 13 17 7 9 1026.3 1027.0 2.0
29/06:30am -0.1 -5.0 -0.4 98 0.1 S 15 17 8 9 1026.0 1026.7 2.0
29/06:00am 0.5 -4.3 0.2 98 0.1 S 15 19 8 10 1025.9 1026.6 2.0
29/05:30am 0.4 -4.4 0.1 98 0.1 S 15 20 8 11 1025.6 1026.3 2.0
29/05:00am 0.2 -4.7 -0.5 95 0.3 S 15 19 8 10 1025.7 1026.4 2.0
29/04:30am 0.7 -3.8 -0.6 91 0.5 S 13 17 7 9 1025.7 1026.4 2.0
29/04:00am 0.7 -3.8 -0.2 94 0.3 S 13 15 7 8 1025.5 1026.2 2.0
29/03:30am 1.2 -1.9 0.0 92 0.4 SSW 6 7 3 4 1025.6 1026.3 2.0
29/03:00am 2.0 -2.0 0.4 89 0.6 SSW 11 15 6 8 1025.8 1026.5 2.0
29/02:30am 2.2 -2.2 0.6 89 0.6 SSW 13 19 7 10 1025.8 1026.5 2.0
29/02:00am 2.5 -1.8 1.0 90 0.6 SSW 13 17 7 9 1026.1 1026.8 2.0
29/01:30am 2.1 -2.7 0.5 89 0.6 SSW 15 20 8 11 1026.3 1027.0 2.0
29/01:00am 2.1 -2.3 0.3 88 0.7 SSW 13 20 7 11 1026.4 1027.1 2.0
29/12:30am 2.2 -2.2 0.6 89 0.6 SSW 13 20 7 11 1026.4 1027.1 2.0
29/12:00am 1.9 -1.9 1.6 98 0.1 SSW 11 17 6 9 1026.4 1027.1 2.0
 
Date/Time
EST
Temp
°C
App
Temp
°C
Dew
Point
Rel
Hum
%
Delta-T
°C
Wind Press
QNH
hPa
Press
MSL
hPa
Rain
since 9 am
mm
Dir
 
Spd
km/h
Gust
km/h
Spd
kts
Gust
kts
28/11:30pm 1.6 -2.7 1.3 98 0.1 S 13 15 7 8 1026.4 1027.1 2.0
28/11:00pm 2.5 -2.0 2.2 98 0.1 S 15 19 8 10 1026.7 1027.5 2.0
28/10:30pm 3.3 -1.4 3.0 98 0.1 S 17 20 9 11 1026.7 1027.5 2.0
28/10:00pm 4.1 -0.5 3.8 98 0.1 S 17 20 9 11 1026.5 1027.2 2.0
28/09:30pm 4.8 0.2 3.5 91 0.6 SSE 17 20 9 11 1026.6 1027.4 2.0
28/09:00pm 4.9 -0.3 3.6 91 0.6 SSE 20 26 11 14 1026.3 1027.0 2.0
28/08:30pm 5.3 0.4 5.0 98 0.1 SSE 20 28 11 15 1026.0 1026.7 2.0
28/08:22pm 5.3 0.9 5.0 98 0.1 SSE 17 26 9 14 1025.9 1026.6 2.0
28/08:00pm 6.0 1.8 5.9 99 0.0 SSE 17 24 9 13 1025.8 1026.5 2.0
28/07:56pm 6.1 2.3 6.0 99 0.0 SSE 15 20 8 11 1025.8 1026.5 2.0
28/07:41pm 6.1 2.3 6.0 99 0.0 SSE 15 20 8 11 1025.8 1026.5 2.0
28/07:30pm 6.0 1.8 5.9 99 0.0 SSE 17 20 9 11 1025.8 1026.5 2.0
28/07:13pm 6.2 2.5 6.1 99 0.0 SSE 15 20 8 11 1025.7 1026.4 2.0
28/07:08pm 6.2 2.5 6.1 99 0.0 SSE 15 20 8 11 1025.6 1026.3 2.0
28/07:00pm 6.2 2.5 6.1 99 0.0 SSE 15 19 8 10 1025.6 1026.3 2.0
28/06:30pm 6.3 2.2 6.2 99 0.0 SSE 17 24 9 13 1025.3 1026.1 2.0
28/06:00pm 6.4 2.3 6.3 99 0.0 SSE 17 22 9 12 1025.2 1026.0 2.0
28/05:34pm 6.8 2.4 6.7 99 0.0 SSE 19 24 10 13 1024.8 1025.6 2.0
28/05:30pm 6.8 2.2 6.7 99 0.0 SSE 20 24 11 13 1024.8 1025.6 2.0
28/05:16pm 6.9 2.6 6.8 99 0.0 SE 19 26 10 14 1024.6 1025.4 2.0
28/05:14pm 7.0 2.7 6.9 99 0.0 SSE 19 22 10 12 1024.6 1025.4 2.0
28/05:10pm 7.0 2.5 6.9 99 0.0 SSE 20 24 11 13 1024.6 1025.4 2.0
28/05:00pm 7.1 2.6 7.0 99 0.0 S 20 26 11 14 1024.5 1025.2 2.0
28/04:56pm 7.4 3.0 7.3 99 0.0 S 20 24 11 13 1024.5 1025.2 1.8
28/04:40pm 7.9 4.9 7.8 99 0.0 SSE 13 17 7 9 1024.3 1025.0 1.0
28/04:30pm 7.8 4.4 7.7 99 0.0 SSE 15 20 8 11 1024.3 1025.0 1.0
28/04:28pm 7.9 4.5 7.8 99 0.0 SSE 15 20 8 11 1024.4 1025.1 1.0
28/04:03pm 7.8 4.0 7.7 99 0.0 SSE 17 24 9 13 1024.3 1025.0 1.0
28/04:00pm 7.7 3.3 7.6 99 0.0 SSE 20 28 11 15 1024.4 1025.1 1.0
28/03:45pm 7.9 2.4 7.6 98 0.1 SSE 26 37 14 20 1024.4 1025.1 0.4
28/03:30pm 10.6 6.1 6.2 74 2.1 SSW 19 24 10 13 1024.1 1024.8 0.0
28/03:00pm 10.1 7.0 7.2 82 1.4 SW 13 20 7 11 1024.3 1025.0 0.0

Other Formats:

Comma delimited format used in spreadsheet applications
http://www.bom.gov.au/fwo/IDV60801/IDV60801.94852.axf

JavaScript Object Notation format (JSON) in row-major order
http://www.bom.gov.au/fwo/IDV60801/IDV60801.94852.json